Time;durP1;ratioP1;P1;durP2;ratioP2;P2;SDS_P1;SDS_P2;PMS_P1;PMS_P2;Temp;Humidity;BMP_temperature;BMP_pressure;BME280_temperature;BME280_humidity;BME280_pressure;Samples;Min_cycle;Max_cycle;Signal;HPM_P1;HPM_P2
2021/04/04 00:01:46;;;;;;;8.48;4.35;;;;;;;;;;4977761;28;20545;-81
2021/04/04 00:04:13;;;;;;;8.30;4.22;;;;;;;;;;4995261;28;20022;-80
2021/04/04 00:06:39;;;;;;;9.63;3.70;;;;;;;;;;4977991;28;20022;-80
2021/04/04 00:09:05;;;;;;;8.27;3.78;;;;;;;;;;4995436;28;20483;-79
2021/04/04 00:11:31;;;;;;;6.55;3.58;;;;;;;;;;4995111;28;20029;-78
2021/04/04 00:13:57;;;;;;;6.68;3.90;;;;;;;;;;4995072;28;20026;-78
2021/04/04 00:16:23;;;;;;;6.40;3.75;;;;;;;;;;4995357;28;20050;-79
2021/04/04 00:18:49;;;;;;;8.85;3.90;;;;;;;;;;4977729;28;20057;-80
2021/04/04 00:21:15;;;;;;;6.80;3.45;;;;;;;;;;4995366;28;20106;-80
2021/04/04 00:23:41;;;;;;;6.43;3.30;;;;;;;;;;4994651;28;20030;-81
2021/04/04 00:26:07;;;;;;;7.35;3.83;;;;;;;;;;4994840;28;20026;-79
2021/04/04 00:28:34;;;;;;;6.20;3.38;;;;;;;;;;4977411;28;20073;-80
2021/04/04 00:31:00;;;;;;;7.07;4.05;;;;;;;;;;4977548;28;20105;-81
2021/04/04 00:33:26;;;;;;;7.65;3.88;;;;;;;;;;4995159;28;20376;-80
2021/04/04 00:35:52;;;;;;;6.97;3.78;;;;;;;;;;4995183;28;20054;-78
2021/04/04 00:38:18;;;;;;;8.05;4.10;;;;;;;;;;4977669;28;20458;-80
2021/04/04 00:40:44;;;;;;;7.72;4.10;;;;;;;;;;4995264;28;20031;-79
2021/04/04 00:43:10;;;;;;;8.80;4.20;;;;;;;;;;4995015;28;20023;-79
2021/04/04 00:45:38;;;;;;;8.18;4.15;;;;;;;;;;4977617;28;20022;-80
2021/04/04 00:48:04;;;;;;;9.18;3.92;;;;;;;;;;4977174;28;20034;-79
2021/04/04 00:50:32;;;;;;;8.23;4.40;;;;;;;;;;4994988;28;20506;-78
2021/04/04 00:52:58;;;;;;;7.75;4.30;;;;;;;;;;4977392;28;20037;-80
2021/04/04 00:55:24;;;;;;;9.48;4.22;;;;;;;;;;4977270;28;20018;-81
2021/04/04 00:57:51;;;;;;;8.43;4.07;;;;;;;;;;4994751;28;20089;-79
2021/04/04 01:00:18;;;;;;;7.75;4.07;;;;;;;;;;4994979;28;20097;-79
2021/04/04 01:02:46;;;;;;;7.10;4.10;;;;;;;;;;4994341;28;20489;-80
2021/04/04 01:05:14;;;;;;;6.85;4.07;;;;;;;;;;4994880;28;20054;-80
2021/04/04 01:07:43;;;;;;;8.25;3.60;;;;;;;;;;4994927;28;20027;-81
2021/04/04 01:10:09;;;;;;;7.05;3.70;;;;;;;;;;4977437;28;20022;-80
2021/04/04 01:12:41;;;;;;;6.65;3.97;;;;;;;;;;4994697;28;20026;-80
2021/04/04 01:15:13;;;;;;;7.57;3.83;;;;;;;;;;4977093;28;20058;-79
2021/04/04 01:17:39;;;;;;;9.48;3.90;;;;;;;;;;4994503;28;20113;-80
2021/04/04 01:20:05;;;;;;;7.55;3.83;;;;;;;;;;4976824;28;20046;-80
2021/04/04 01:22:50;;;;;;;7.63;4.13;;;;;;;;;;4994407;28;20030;-79
2021/04/04 01:25:40;;;;;;;6.25;3.70;;;;;;;;;;4994444;28;20030;-80
2021/04/04 01:28:08;;;;;;;8.43;4.13;;;;;;;;;;4981257;28;20062;-80
2021/04/04 01:30:37;;;;;;;7.20;3.75;;;;;;;;;;4976983;28;20031;-79
2021/04/04 01:33:04;;;;;;;8.38;4.10;;;;;;;;;;4994246;28;20025;-80
2021/04/04 01:35:32;;;;;;;8.23;3.97;;;;;;;;;;4994139;28;20031;-80
2021/04/04 01:37:59;;;;;;;8.98;4.00;;;;;;;;;;4994140;28;20105;-81
2021/04/04 01:40:26;;;;;;;6.90;3.80;;;;;;;;;;4976619;28;20023;-81
2021/04/04 01:42:55;;;;;;;10.55;4.20;;;;;;;;;;4993919;28;20033;-82
2021/04/04 01:45:22;;;;;;;9.10;4.28;;;;;;;;;;4994051;28;20010;-81
2021/04/04 01:47:50;;;;;;;7.97;4.20;;;;;;;;;;4976561;28;20088;-82
2021/04/04 01:50:16;;;;;;;7.65;4.20;;;;;;;;;;4993961;28;20046;-81
2021/04/04 01:52:42;;;;;;;10.95;4.53;;;;;;;;;;4976499;28;20077;-81
2021/04/04 01:55:10;;;;;;;8.10;4.13;;;;;;;;;;4976449;28;20496;-81
2021/04/04 01:57:37;;;;;;;7.80;4.07;;;;;;;;;;4993899;28;20053;-80
2021/04/04 02:00:09;;;;;;;6.97;3.95;;;;;;;;;;4976257;28;20019;-79
2021/04/04 02:02:35;;;;;;;7.90;4.00;;;;;;;;;;4976378;28;20398;-79
2021/04/04 02:05:02;;;;;;;7.28;3.97;;;;;;;;;;4993805;28;20029;-80
2021/04/04 02:07:29;;;;;;;7.47;4.38;;;;;;;;;;4976228;28;20029;-81
2021/04/04 02:09:56;;;;;;;6.60;3.67;;;;;;;;;;4993488;28;20112;-81
2021/04/04 02:12:22;;;;;;;7.65;3.95;;;;;;;;;;4993641;28;20026;-80
2021/04/04 02:14:49;;;;;;;7.40;3.88;;;;;;;;;;4975727;28;20026;-80
2021/04/04 02:17:16;;;;;;;7.50;4.18;;;;;;;;;;4992993;28;20030;-80
2021/04/04 02:19:42;;;;;;;8.38;4.10;;;;;;;;;;4992937;28;20066;-80
2021/04/04 02:22:08;;;;;;;7.82;4.22;;;;;;;;;;4993388;28;20110;-82
2021/04/04 02:24:34;;;;;;;7.00;3.45;;;;;;;;;;4993158;28;20058;-79
2021/04/04 02:27:00;;;;;;;8.27;4.00;;;;;;;;;;4991170;28;20522;-79
2021/04/04 02:29:27;;;;;;;6.70;4.10;;;;;;;;;;4988635;28;20052;-82
2021/04/04 02:32:00;;;;;;;8.70;4.32;;;;;;;;;;4993158;28;20110;-81
2021/04/04 02:34:39;;;;;;;6.70;3.72;;;;;;;;;;4975661;28;20030;-82
2021/04/04 02:37:06;;;;;;;6.65;3.72;;;;;;;;;;4993124;28;20050;-82
2021/04/04 02:39:38;;;;;;;8.10;3.90;;;;;;;;;;4975595;28;20026;-80
2021/04/04 02:42:05;;;;;;;7.82;4.25;;;;;;;;;;4993150;28;20110;-79
2021/04/04 02:44:32;;;;;;;7.72;3.90;;;;;;;;;;4975771;28;20121;-82
2021/04/04 02:47:02;;;;;;;6.90;4.07;;;;;;;;;;4975650;28;20117;-80
2021/04/04 02:49:29;;;;;;;8.60;4.10;;;;;;;;;;4992995;28;20487;-81
2021/04/04 02:51:57;;;;;;;8.45;4.03;;;;;;;;;;4993378;28;20053;-79
2021/04/04 02:54:27;;;;;;;8.32;3.88;;;;;;;;;;4975616;28;20453;-79
2021/04/04 02:56:55;;;;;;;8.10;4.03;;;;;;;;;;4993168;28;20027;-82
2021/04/04 02:59:25;;;;;;;8.35;3.78;;;;;;;;;;4975675;28;20022;-80
2021/04/04 03:01:52;;;;;;;6.63;3.63;;;;;;;;;;4975856;28;20095;-80
2021/04/04 03:04:19;;;;;;;7.13;3.90;;;;;;;;;;4993099;28;20018;-80
2021/04/04 03:06:45;;;;;;;7.65;4.10;;;;;;;;;;4992919;28;20032;-82
2021/04/04 03:09:13;;;;;;;7.22;3.90;;;;;;;;;;4975575;28;20134;-82
2021/04/04 03:11:40;;;;;;;6.85;3.90;;;;;;;;;;4975440;28;20383;-80
2021/04/04 03:14:07;;;;;;;7.95;4.25;;;;;;;;;;4975904;28;20022;-82
2021/04/04 03:16:34;;;;;;;9.90;3.90;;;;;;;;;;4993036;28;20080;-84
2021/04/04 03:19:01;;;;;;;7.38;4.10;;;;;;;;;;4992626;28;20085;-81
2021/04/04 03:21:28;;;;;;;7.60;3.85;;;;;;;;;;4993120;28;20457;-82
2021/04/04 03:23:55;;;;;;;8.40;3.90;;;;;;;;;;4975405;28;20022;-82
2021/04/04 03:26:22;;;;;;;7.45;4.10;;;;;;;;;;4992494;28;20026;-82
2021/04/04 03:28:48;;;;;;;6.60;3.88;;;;;;;;;;4975137;28;20035;-84
2021/04/04 03:31:15;;;;;;;8.48;4.22;;;;;;;;;;4975450;28;20109;-81
2021/04/04 03:33:42;;;;;;;7.63;3.67;;;;;;;;;;4992819;28;20394;-81
2021/04/04 03:36:08;;;;;;;6.35;3.80;;;;;;;;;;4975025;28;20022;-83
2021/04/04 03:38:34;;;;;;;8.73;4.38;;;;;;;;;;4975115;28;20520;-83
2021/04/04 03:41:00;;;;;;;7.75;4.10;;;;;;;;;;4992436;28;20441;-79
2021/04/04 03:43:28;;;;;;;7.05;3.70;;;;;;;;;;4992424;28;20057;-79
2021/04/04 03:45:57;;;;;;;9.38;3.88;;;;;;;;;;4974949;28;20026;-81
2021/04/04 03:48:23;;;;;;;7.70;4.20;;;;;;;;;;4974802;28;20023;-80
2021/04/04 03:50:52;;;;;;;7.80;4.25;;;;;;;;;;4974852;28;20030;-80
2021/04/04 03:53:19;;;;;;;6.00;3.60;;;;;;;;;;4974684;28;20022;-82
2021/04/04 03:55:47;;;;;;;7.65;4.07;;;;;;;;;;4992067;28;20050;-79
2021/04/04 03:58:14;;;;;;;8.63;3.90;;;;;;;;;;4975017;28;20022;-79
2021/04/04 04:00:40;;;;;;;7.90;4.32;;;;;;;;;;4974824;28;20451;-80
2021/04/04 04:03:08;;;;;;;7.35;3.80;;;;;;;;;;4975074;28;20022;-82
2021/04/04 04:05:34;;;;;;;6.90;3.85;;;;;;;;;;4992068;28;20033;-82
2021/04/04 04:08:01;;;;;;;7.75;3.92;;;;;;;;;;4992616;28;20034;-82
2021/04/04 04:10:27;;;;;;;7.43;3.75;;;;;;;;;;4992314;28;20027;-80
2021/04/04 04:12:54;;;;;;;6.72;3.80;;;;;;;;;;4975007;28;20035;-81
2021/04/04 04:15:21;;;;;;;7.72;4.05;;;;;;;;;;4992113;28;20049;-83
2021/04/04 04:17:48;;;;;;;7.38;4.45;;;;;;;;;;4991875;28;20073;-82
2021/04/04 04:20:15;;;;;;;6.40;3.60;;;;;;;;;;4974645;28;20034;-80
2021/04/04 04:22:42;;;;;;;6.65;3.67;;;;;;;;;;4974975;28;20030;-79
2021/04/04 04:25:10;;;;;;;7.13;3.92;;;;;;;;;;4992361;28;20046;-80
2021/04/04 04:27:37;;;;;;;6.85;3.92;;;;;;;;;;4992093;28;20019;-83
2021/04/04 04:30:04;;;;;;;9.18;4.75;;;;;;;;;;4974403;28;20488;-82
2021/04/04 04:32:33;;;;;;;7.82;4.18;;;;;;;;;;4974629;28;20498;-79
2021/04/04 04:35:01;;;;;;;7.38;3.88;;;;;;;;;;4974665;28;20019;-82
2021/04/04 04:37:27;;;;;;;7.60;4.13;;;;;;;;;;4992114;28;20096;-79
2021/04/04 04:39:53;;;;;;;6.75;3.92;;;;;;;;;;4995495;28;20606;-82
2021/04/04 04:42:20;;;;;;;6.97;3.78;;;;;;;;;;4978220;28;20491;-81
2021/04/04 04:44:48;;;;;;;6.68;3.92;;;;;;;;;;4977909;28;20073;-80
2021/04/04 04:47:14;;;;;;;7.35;4.07;;;;;;;;;;4995605;28;20023;-81
2021/04/04 04:49:43;;;;;;;7.38;4.28;;;;;;;;;;4977952;28;20073;-84
2021/04/04 04:52:09;;;;;;;10.15;4.30;;;;;;;;;;4995098;28;20084;-80
2021/04/04 04:54:35;;;;;;;8.32;3.90;;;;;;;;;;4977638;28;20037;-80
2021/04/04 04:57:01;;;;;;;7.93;4.05;;;;;;;;;;4995472;28;20025;-81
2021/04/04 04:59:28;;;;;;;6.68;3.55;;;;;;;;;;4978304;28;20022;-81
2021/04/04 05:01:54;;;;;;;6.80;3.75;;;;;;;;;;4995170;28;20057;-85
2021/04/04 05:04:21;;;;;;;7.45;4.00;;;;;;;;;;4995308;28;20048;-81
2021/04/04 05:06:48;;;;;;;7.32;4.13;;;;;;;;;;4977846;28;20498;-82
2021/04/04 05:09:15;;;;;;;6.35;3.60;;;;;;;;;;4977675;28;20034;-80
2021/04/04 05:11:45;;;;;;;9.98;4.03;;;;;;;;;;4977597;28;20030;-82
2021/04/04 05:14:12;;;;;;;7.85;4.18;;;;;;;;;;4977597;28;20121;-80
2021/04/04 05:16:38;;;;;;;7.97;4.10;;;;;;;;;;4995027;28;20022;-81
2021/04/04 05:19:06;;;;;;;7.65;3.78;;;;;;;;;;4995108;28;20407;-83
2021/04/04 05:21:33;;;;;;;7.30;3.70;;;;;;;;;;4995530;28;20054;-84
2021/04/04 05:24:00;;;;;;;6.55;3.60;;;;;;;;;;4977781;28;20487;-84
2021/04/04 05:26:27;;;;;;;7.20;3.70;;;;;;;;;;4995628;28;20030;-85
2021/04/04 05:28:54;;;;;;;6.57;3.53;;;;;;;;;;4995025;28;20030;-85
2021/04/04 05:31:23;;;;;;;7.63;3.47;;;;;;;;;;4995545;28;20246;-80
2021/04/04 05:33:49;;;;;;;6.43;3.75;;;;;;;;;;4995284;28;20428;-84
2021/04/04 05:36:15;;;;;;;8.05;3.92;;;;;;;;;;4995261;28;20026;-84
2021/04/04 05:38:41;;;;;;;6.78;3.45;;;;;;;;;;4995315;28;20034;-85
2021/04/04 05:41:07;;;;;;;8.10;3.60;;;;;;;;;;4994971;28;20069;-80
2021/04/04 05:43:36;;;;;;;7.85;3.78;;;;;;;;;;4977494;28;20030;-86
2021/04/04 05:46:02;;;;;;;5.30;2.97;;;;;;;;;;4994887;28;20050;-80
2021/04/04 05:48:52;;;;;;;5.80;3.28;;;;;;;;;;4977521;28;20044;-80
2021/04/04 05:51:20;;;;;;;6.55;3.40;;;;;;;;;;4994820;28;20076;-87
2021/04/04 05:54:05;;;;;;;5.82;3.35;;;;;;;;;;4995373;28;20026;-81
2021/04/04 05:56:39;;;;;;;5.80;3.30;;;;;;;;;;4995267;28;20022;-80
2021/04/04 05:59:07;;;;;;;6.20;3.22;;;;;;;;;;4978103;28;20037;-86
2021/04/04 06:01:34;;;;;;;6.45;3.45;;;;;;;;;;4994063;28;20490;-89
2021/04/04 06:04:19;;;;;;;6.93;3.67;;;;;;;;;;4977675;28;20484;-83
2021/04/04 06:06:51;;;;;;;6.07;3.38;;;;;;;;;;4995034;28;20034;-83
2021/04/04 06:09:34;;;;;;;6.70;3.53;;;;;;;;;;4977825;28;20446;-86
2021/04/04 06:12:17;;;;;;;6.18;3.10;;;;;;;;;;4977834;28;20387;-89
2021/04/04 06:15:01;;;;;;;6.95;3.35;;;;;;;;;;4977852;28;20387;-86
2021/04/04 06:17:28;;;;;;;7.20;3.15;;;;;;;;;;4977341;28;20033;-79
2021/04/04 06:20:14;;;;;;;5.32;2.97;;;;;;;;;;4994487;28;20526;-82
2021/04/04 06:22:49;;;;;;;6.05;2.80;;;;;;;;;;4977688;28;20030;-86
2021/04/04 06:25:22;;;;;;;5.57;3.08;;;;;;;;;;4995035;28;20049;-80
2021/04/04 06:27:54;;;;;;;6.88;3.10;;;;;;;;;;4994678;28;20084;-83
2021/04/04 06:30:46;;;;;;;5.93;3.07;;;;;;;;;;4977359;28;20026;-87
2021/04/04 06:33:22;;;;;;;5.22;3.15;;;;;;;;;;4977465;28;20042;-88
2021/04/04 06:35:58;;;;;;;6.32;2.90;;;;;;;;;;4977054;28;20018;-81
2021/04/04 06:38:33;;;;;;;5.50;2.80;;;;;;;;;;4977440;28;20084;-81
2021/04/04 06:41:05;;;;;;;7.30;3.20;;;;;;;;;;4976946;28;20494;-87
2021/04/04 06:43:36;;;;;;;6.45;3.17;;;;;;;;;;4994701;28;20046;-84
2021/04/04 06:46:18;;;;;;;6.97;3.35;;;;;;;;;;4994364;28;20080;-83
2021/04/04 06:48:44;;;;;;;6.47;2.85;;;;;;;;;;4994156;28;20077;-81
2021/04/04 06:51:24;;;;;;;5.63;3.08;;;;;;;;;;4976947;28;20037;-88
2021/04/04 06:54:09;;;;;;;4.53;2.45;;;;;;;;;;4990051;28;20030;-83
2021/04/04 06:56:41;;;;;;;8.10;3.13;;;;;;;;;;4974244;28;20058;-87
2021/04/04 06:59:27;;;;;;;5.50;2.65;;;;;;;;;;4972995;28;20030;-87
2021/04/04 07:01:58;;;;;;;5.70;2.65;;;;;;;;;;4974940;28;20030;-80
2021/04/04 07:04:30;;;;;;;7.28;2.40;;;;;;;;;;4992699;28;20054;-82
2021/04/04 07:07:15;;;;;;;5.90;2.42;;;;;;;;;;4992750;28;20026;-80
2021/04/04 07:09:47;;;;;;;5.45;2.03;;;;;;;;;;4975159;28;20117;-80
2021/04/04 07:12:31;;;;;;;4.88;2.45;;;;;;;;;;4992246;28;20026;-80
2021/04/04 07:15:18;;;;;;;6.80;2.30;;;;;;;;;;4992789;28;20383;-84
2021/04/04 07:18:03;;;;;;;4.75;2.30;;;;;;;;;;4975648;28;20034;-83
2021/04/04 07:20:41;;;;;;;4.78;2.13;;;;;;;;;;4972206;28;20042;-85
2021/04/04 07:23:26;;;;;;;4.95;2.63;;;;;;;;;;4956092;28;20030;-82
2021/04/04 07:26:04;;;;;;;5.40;2.15;;;;;;;;;;4955894;28;20026;-85
2021/04/04 07:28:39;;;;;;;6.60;2.50;;;;;;;;;;4972952;28;20034;-83
2021/04/04 07:31:09;;;;;;;12.90;3.05;;;;;;;;;;4955402;28;20023;-82
2021/04/04 07:33:49;;;;;;;7.93;2.50;;;;;;;;;;4954986;28;20037;-79
2021/04/04 07:36:30;;;;;;;11.00;2.40;;;;;;;;;;4984448;28;20479;-80
2021/04/04 07:39:03;;;;;;;6.68;2.17;;;;;;;;;;4974614;28;20027;-87
2021/04/04 07:41:45;;;;;;;5.22;2.33;;;;;;;;;;4992217;28;20049;-86
2021/04/04 07:44:19;;;;;;;11.20;2.65;;;;;;;;;;4974940;28;20176;-82
2021/04/04 07:47:02;;;;;;;4.32;2.33;;;;;;;;;;4992528;28;20030;-84
2021/04/04 07:49:39;;;;;;;3.80;2.00;;;;;;;;;;4975052;28;20070;-85
2021/04/04 07:52:14;;;;;;;5.43;2.30;;;;;;;;;;4974937;28;20026;-84
2021/04/04 07:54:43;;;;;;;8.02;2.30;;;;;;;;;;4992856;28;20027;-79
2021/04/04 07:57:22;;;;;;;5.07;2.30;;;;;;;;;;4975010;28;20074;-87
2021/04/04 07:59:51;;;;;;;8.13;2.30;;;;;;;;;;4992643;28;20023;-86
2021/04/04 08:02:18;;;;;;;7.40;2.20;;;;;;;;;;4982718;28;20499;-86
2021/04/04 08:04:49;;;;;;;8.55;3.10;;;;;;;;;;4957136;28;20031;-87
2021/04/04 08:07:21;;;;;;;10.15;2.15;;;;;;;;;;4973953;28;20027;-81
2021/04/04 08:10:26;;;;;;;8.05;2.35;;;;;;;;;;4965620;28;20498;-84
2021/04/04 08:12:59;;;;;;;12.63;2.50;;;;;;;;;;4899250;29;20076;-87
2021/04/04 08:15:27;;;;;;;7.72;2.60;;;;;;;;;;4902603;29;20048;-82
2021/04/04 08:17:53;;;;;;;7.90;2.08;;;;;;;;;;4960707;28;20513;-89
2021/04/04 08:20:28;;;;;;;8.70;2.30;;;;;;;;;;4997461;28;20035;-79
2021/04/04 08:23:00;;;;;;;16.98;4.15;;;;;;;;;;4996713;28;20023;-86
2021/04/04 08:25:31;;;;;;;15.65;4.90;;;;;;;;;;4996890;28;20031;-85
2021/04/04 08:27:59;;;;;;;23.00;6.22;;;;;;;;;;4978930;28;20146;-82
2021/04/04 08:30:28;;;;;;;34.33;8.80;;;;;;;;;;4978112;28;20034;-80
2021/04/04 08:32:56;;;;;;;24.25;7.15;;;;;;;;;;4978722;28;20033;-85
2021/04/04 08:35:25;;;;;;;29.42;8.23;;;;;;;;;;4996175;28;20030;-83
2021/04/04 08:37:55;;;;;;;25.23;7.32;;;;;;;;;;4995718;28;20048;-83
2021/04/04 08:40:21;;;;;;;21.73;6.40;;;;;;;;;;4995816;28;20498;-84
2021/04/04 08:42:49;;;;;;;24.13;6.70;;;;;;;;;;4995285;28;20475;-82
2021/04/04 08:45:18;;;;;;;29.58;7.90;;;;;;;;;;4995427;28;20050;-79
2021/04/04 08:47:46;;;;;;;38.30;7.80;;;;;;;;;;4977935;28;20052;-80
2021/04/04 08:50:14;;;;;;;29.85;8.15;;;;;;;;;;4977981;28;20027;-79
2021/04/04 08:52:42;;;;;;;39.95;8.77;;;;;;;;;;4995120;28;20026;-84
2021/04/04 08:55:11;;;;;;;30.27;8.02;;;;;;;;;;4977720;28;20725;-83
2021/04/04 08:57:42;;;;;;;25.83;5.55;;;;;;;;;;4995753;28;20022;-83
2021/04/04 09:00:09;;;;;;;29.48;6.72;;;;;;;;;;4977609;28;20502;-81
2021/04/04 09:02:46;;;;;;;22.48;5.53;;;;;;;;;;4986037;28;20109;-83
2021/04/04 09:05:12;;;;;;;23.65;6.07;;;;;;;;;;5014804;28;20076;-78
2021/04/04 09:07:45;;;;;;;34.75;6.30;;;;;;;;;;5014645;28;20101;-80
2021/04/04 09:10:14;;;;;;;21.98;5.50;;;;;;;;;;5014417;28;20026;-80
2021/04/04 09:12:40;;;;;;;24.40;5.50;;;;;;;;;;4996727;28;20018;-82
2021/04/04 09:15:08;;;;;;;27.73;5.05;;;;;;;;;;5014420;28;20018;-80
2021/04/04 09:17:34;;;;;;;37.10;5.35;;;;;;;;;;4989637;28;20125;-76
2021/04/04 09:20:02;;;;;;;30.67;6.20;;;;;;;;;;4993919;28;20411;-79
2021/04/04 09:22:29;;;;;;;39.67;6.72;;;;;;;;;;4994053;28;20022;-77
2021/04/04 09:25:01;;;;;;;32.17;6.00;;;;;;;;;;4993364;28;20165;-78
2021/04/04 09:27:27;;;;;;;;;;;;;;;;;;4973341;28;20030;-77
2021/04/04 09:29:56;;;;;;;36.08;5.22;;;;;;;;;;4990224;28;19917;-78
2021/04/04 09:32:36;;;;;;;21.23;5.13;;;;;;;;;;4972834;28;20368;-79
2021/04/04 09:35:07;;;;;;;18.42;5.03;;;;;;;;;;4972912;28;20026;-78
2021/04/04 09:37:34;;;;;;;22.52;4.45;;;;;;;;;;4974459;28;20084;-78
2021/04/04 09:40:00;;;;;;;14.88;3.97;;;;;;;;;;4974936;28;20054;-78
2021/04/04 09:42:33;;;;;;;21.98;4.82;;;;;;;;;;4974863;28;20080;-78
2021/04/04 09:44:59;;;;;;;;;;;;;;;;;;4993804;28;20034;-78
2021/04/04 09:47:34;;;;;;;16.90;3.90;;;;;;;;;;4975984;28;19917;-79
2021/04/04 09:50:00;;;;;;;15.60;4.10;;;;;;;;;;4975926;28;20034;-78
2021/04/04 09:52:28;;;;;;;21.83;4.03;;;;;;;;;;4975883;28;20072;-78
2021/04/04 09:55:08;;;;;;;18.08;3.70;;;;;;;;;;4993132;28;20033;-78
2021/04/04 09:57:55;;;;;;;11.38;2.90;;;;;;;;;;4963473;28;20034;-78
2021/04/04 10:00:26;;;;;;;16.55;4.40;;;;;;;;;;4956367;28;20052;-78
2021/04/04 10:02:55;;;;;;;9.65;3.50;;;;;;;;;;4972470;28;20052;-78
2021/04/04 10:05:36;;;;;;;13.18;3.17;;;;;;;;;;4972373;28;20034;-77
2021/04/04 10:08:16;;;;;;;8.50;3.15;;;;;;;;;;4974671;28;20035;-78
2021/04/04 10:10:43;;;;;;;9.40;3.17;;;;;;;;;;4992981;28;20448;-79
2021/04/04 10:13:09;;;;;;;10.25;3.47;;;;;;;;;;4975761;28;20114;-78
2021/04/04 10:15:40;;;;;;;10.45;3.33;;;;;;;;;;4992656;28;20034;-78
2021/04/04 10:18:06;;;;;;;8.35;2.53;;;;;;;;;;4991657;28;20081;-78
2021/04/04 10:20:40;;;;;;;7.53;2.53;;;;;;;;;;4994008;28;20543;-78
2021/04/04 10:23:07;;;;;;;10.52;3.38;;;;;;;;;;4992812;28;20030;-78
2021/04/04 10:25:33;;;;;;;10.32;2.78;;;;;;;;;;4992638;28;20026;-78
2021/04/04 10:28:01;;;;;;;9.27;2.95;;;;;;;;;;4992209;28;20044;-78
2021/04/04 10:30:29;;;;;;;8.82;3.05;;;;;;;;;;4992947;28;20022;-78
2021/04/04 10:32:56;;;;;;;6.75;2.45;;;;;;;;;;4993063;28;20022;-79
2021/04/04 10:35:30;;;;;;;6.75;2.60;;;;;;;;;;4992224;28;20023;-79
2021/04/04 10:38:02;;;;;;;5.97;2.25;;;;;;;;;;4975103;28;20022;-80
2021/04/04 10:40:41;;;;;;;7.97;2.70;;;;;;;;;;4975254;28;20383;-79
2021/04/04 10:43:07;;;;;;;6.97;2.35;;;;;;;;;;4992296;28;20436;-80
2021/04/04 10:45:33;;;;;;;6.97;2.38;;;;;;;;;;4975105;28;20477;-79
2021/04/04 10:48:06;;;;;;;7.15;2.60;;;;;;;;;;4975063;28;20533;-79
2021/04/04 10:50:33;;;;;;;5.63;2.20;;;;;;;;;;4975334;28;20023;-79
2021/04/04 10:53:00;;;;;;;5.85;2.40;;;;;;;;;;4992511;28;20022;-79
2021/04/04 10:55:26;;;;;;;6.30;2.25;;;;;;;;;;4974803;28;20129;-78
2021/04/04 10:57:53;;;;;;;5.35;2.08;;;;;;;;;;4992139;28;20010;-79
2021/04/04 11:00:20;;;;;;;4.97;1.92;;;;;;;;;;4974751;28;20030;-78
2021/04/04 11:02:46;;;;;;;5.28;2.03;;;;;;;;;;4974857;28;20064;-78
2021/04/04 11:05:13;;;;;;;5.05;2.10;;;;;;;;;;4975110;28;20029;-78
2021/04/04 11:07:40;;;;;;;4.57;2.10;;;;;;;;;;4974439;28;20109;-78
2021/04/04 11:10:08;;;;;;;5.80;2.13;;;;;;;;;;4974826;28;20069;-78
2021/04/04 11:12:35;;;;;;;6.72;2.75;;;;;;;;;;4992066;28;20049;-79
2021/04/04 11:15:03;;;;;;;5.82;2.40;;;;;;;;;;4974723;28;20031;-78
2021/04/04 11:17:30;;;;;;;6.70;2.35;;;;;;;;;;4991919;28;20057;-78
2021/04/04 11:19:56;;;;;;;5.10;2.08;;;;;;;;;;4991997;28;20122;-78
2021/04/04 11:22:23;;;;;;;4.13;1.80;;;;;;;;;;4992203;28;20030;-78
2021/04/04 11:25:08;;;;;;;5.68;2.40;;;;;;;;;;4992160;28;20018;-78
2021/04/04 11:27:48;;;;;;;4.40;2.20;;;;;;;;;;4991918;28;20025;-78
2021/04/04 11:30:32;;;;;;;6.97;2.10;;;;;;;;;;4971306;28;20082;-78
2021/04/04 11:33:17;;;;;;;4.70;1.95;;;;;;;;;;4957184;28;20073;-78
2021/04/04 11:36:02;;;;;;;4.07;1.90;;;;;;;;;;4974216;28;20033;-78
2021/04/04 11:38:29;;;;;;;3.85;1.60;;;;;;;;;;4992163;28;20034;-79
2021/04/04 11:41:10;;;;;;;4.40;1.90;;;;;;;;;;4991786;28;20388;-79
2021/04/04 11:43:36;;;;;;;4.95;2.03;;;;;;;;;;4991732;28;20475;-80
2021/04/04 11:46:02;;;;;;;4.07;1.50;;;;;;;;;;4991716;28;20022;-80
2021/04/04 11:48:36;;;;;;;3.92;1.80;;;;;;;;;;4977809;28;20034;-79
2021/04/04 11:51:10;;;;;;;4.85;2.03;;;;;;;;;;4995688;28;20030;-79
2021/04/04 11:53:40;;;;;;;3.30;1.58;;;;;;;;;;4978255;28;20649;-79
2021/04/04 11:56:06;;;;;;;5.10;1.80;;;;;;;;;;4994888;28;20023;-79
2021/04/04 11:58:33;;;;;;;4.18;1.92;;;;;;;;;;4974742;28;20026;-79
2021/04/04 12:00:59;;;;;;;3.80;1.92;;;;;;;;;;4975088;28;20023;-79
2021/04/04 12:03:27;;;;;;;3.67;1.70;;;;;;;;;;4976117;28;20023;-78
2021/04/04 12:05:53;;;;;;;3.95;1.88;;;;;;;;;;4974658;28;20023;-78
2021/04/04 12:08:29;;;;;;;5.05;1.83;;;;;;;;;;4987299;28;20022;-78
2021/04/04 12:10:55;;;;;;;4.63;2.22;;;;;;;;;;4977804;28;20022;-79
2021/04/04 12:13:22;;;;;;;4.10;1.98;;;;;;;;;;4995357;28;20379;-78
2021/04/04 12:15:48;;;;;;;4.18;2.08;;;;;;;;;;4977555;28;20119;-78
2021/04/04 12:18:14;;;;;;;4.22;1.70;;;;;;;;;;4995001;28;20053;-79
2021/04/04 12:20:40;;;;;;;3.35;1.50;;;;;;;;;;4995252;28;20037;-78
2021/04/04 12:23:13;;;;;;;4.05;1.73;;;;;;;;;;4977602;28;20088;-78
2021/04/04 12:25:39;;;;;;;3.40;1.65;;;;;;;;;;4994808;28;20022;-78
2021/04/04 12:28:06;;;;;;;3.58;1.83;;;;;;;;;;4991732;28;20058;-78
2021/04/04 12:30:34;;;;;;;4.32;2.00;;;;;;;;;;4974363;28;20066;-78
2021/04/04 12:33:06;;;;;;;4.90;1.65;;;;;;;;;;4974207;28;20037;-78
2021/04/04 12:35:32;;;;;;;2.97;1.67;;;;;;;;;;4974073;28;20027;-78
2021/04/04 12:37:58;;;;;;;3.83;2.05;;;;;;;;;;4973781;28;20034;-78
2021/04/04 12:40:25;;;;;;;4.25;2.22;;;;;;;;;;4975281;28;20051;-79
2021/04/04 12:42:59;;;;;;;3.92;1.73;;;;;;;;;;4990901;28;20027;-78
2021/04/04 12:45:25;;;;;;;5.85;2.05;;;;;;;;;;4994954;28;20018;-78
2021/04/04 12:47:51;;;;;;;3.30;1.52;;;;;;;;;;4976962;28;20423;-78
2021/04/04 12:50:18;;;;;;;4.97;1.98;;;;;;;;;;4977137;28;20054;-78
2021/04/04 12:52:46;;;;;;;4.13;1.80;;;;;;;;;;4977078;28;20022;-78
2021/04/04 12:55:20;;;;;;;4.60;2.17;;;;;;;;;;4976809;28;20026;-78
2021/04/04 12:57:57;;;;;;;3.85;1.92;;;;;;;;;;4976782;28;20462;-78
2021/04/04 13:00:25;;;;;;;4.18;2.03;;;;;;;;;;4973275;28;20069;-78
2021/04/04 13:02:57;;;;;;;4.57;1.90;;;;;;;;;;4957443;28;20022;-78
2021/04/04 13:05:25;;;;;;;3.17;1.80;;;;;;;;;;4957487;28;20031;-78
2021/04/04 13:07:52;;;;;;;3.72;2.03;;;;;;;;;;4974847;28;20037;-78
2021/04/04 13:10:18;;;;;;;4.22;1.90;;;;;;;;;;4974723;28;20031;-78
2021/04/04 13:12:44;;;;;;;4.82;2.28;;;;;;;;;;4974856;28;20365;-78
2021/04/04 13:15:20;;;;;;;5.00;2.38;;;;;;;;;;4960229;28;20364;-79
2021/04/04 13:17:46;;;;;;;5.20;2.17;;;;;;;;;;4993336;28;20025;-78
2021/04/04 13:20:13;;;;;;;3.72;1.98;;;;;;;;;;4994012;28;20395;-78
2021/04/04 13:22:39;;;;;;;4.15;1.80;;;;;;;;;;4994082;28;20102;-79
2021/04/04 13:25:06;;;;;;;4.43;1.95;;;;;;;;;;4976377;28;20027;-79
2021/04/04 13:27:33;;;;;;;4.13;2.22;;;;;;;;;;4976294;28;20023;-79
2021/04/04 13:30:01;;;;;;;3.22;1.70;;;;;;;;;;4993567;28;20785;-79
2021/04/04 13:32:42;;;;;;;3.85;2.05;;;;;;;;;;4993764;28;20480;-78
2021/04/04 13:35:09;;;;;;;4.75;2.10;;;;;;;;;;4976205;28;20030;-78
2021/04/04 13:37:42;;;;;;;3.80;1.98;;;;;;;;;;4976140;28;20026;-78
2021/04/04 13:40:11;;;;;;;3.90;1.77;;;;;;;;;;4976214;28;20503;-79
2021/04/04 13:42:48;;;;;;;4.55;2.30;;;;;;;;;;4976174;28;20072;-78
2021/04/04 13:45:32;;;;;;;4.30;2.25;;;;;;;;;;4976173;28;20030;-79
2021/04/04 13:47:59;;;;;;;4.13;1.80;;;;;;;;;;4976202;28;20032;-78
2021/04/04 13:50:25;;;;;;;4.15;2.00;;;;;;;;;;4993593;28;20027;-78
2021/04/04 13:52:51;;;;;;;4.40;2.10;;;;;;;;;;4993437;28;20027;-78
2021/04/04 13:55:29;;;;;;;5.05;2.28;;;;;;;;;;4974321;28;20054;-78
2021/04/04 13:57:55;;;;;;;4.25;2.17;;;;;;;;;;4973837;28;20077;-79
2021/04/04 14:00:41;;;;;;;3.95;2.10;;;;;;;;;;4973910;28;20089;-79
2021/04/04 14:03:08;;;;;;;4.68;2.30;;;;;;;;;;4973793;28;20520;-78
2021/04/04 14:05:35;;;;;;;5.85;2.80;;;;;;;;;;4972456;28;20022;-78
2021/04/04 14:08:07;;;;;;;4.57;2.53;;;;;;;;;;4991838;28;20037;-79
2021/04/04 14:10:34;;;;;;;4.93;2.60;;;;;;;;;;4992517;28;20483;-78
2021/04/04 14:13:00;;;;;;;3.88;2.40;;;;;;;;;;4975701;28;20038;-78
2021/04/04 14:15:26;;;;;;;5.20;2.58;;;;;;;;;;4993167;28;20062;-78
2021/04/04 14:17:52;;;;;;;3.92;2.42;;;;;;;;;;4974260;28;20030;-79
2021/04/04 14:20:18;;;;;;;5.60;2.80;;;;;;;;;;4975967;28;20031;-78
2021/04/04 14:22:44;;;;;;;10.13;2.92;;;;;;;;;;4976076;28;20027;-80
2021/04/04 14:25:10;;;;;;;8.52;2.50;;;;;;;;;;4973008;28;20029;-79
2021/04/04 14:27:37;;;;;;;4.78;2.80;;;;;;;;;;4972608;28;20035;-78
2021/04/04 14:30:03;;;;;;;4.88;2.80;;;;;;;;;;4973086;28;20099;-79
2021/04/04 14:32:29;;;;;;;11.07;2.90;;;;;;;;;;4973635;28;20034;-77
2021/04/04 14:34:55;;;;;;;11.27;3.05;;;;;;;;;;4973467;28;20046;-76
2021/04/04 14:37:21;;;;;;;7.10;2.47;;;;;;;;;;4972199;28;20379;-76
2021/04/04 14:39:47;;;;;;;6.60;2.70;;;;;;;;;;4973677;28;20035;-77
2021/04/04 14:42:13;;;;;;;5.95;2.92;;;;;;;;;;4992719;28;20046;-79
2021/04/04 14:44:40;;;;;;;5.10;2.58;;;;;;;;;;4992854;28;20030;-76
2021/04/04 14:47:06;;;;;;;4.53;2.65;;;;;;;;;;4993199;28;20049;-72
2021/04/04 14:49:32;;;;;;;7.78;2.90;;;;;;;;;;4992535;28;20053;-75
2021/04/04 14:51:58;;;;;;;5.95;2.70;;;;;;;;;;4974689;28;20136;-74
2021/04/04 14:54:24;;;;;;;8.07;3.00;;;;;;;;;;4974599;28;20022;-76
2021/04/04 14:56:52;;;;;;;5.15;2.47;;;;;;;;;;4992179;28;20050;-76